LOWG/GRZ METAR and TAF weather

Enter ICAO airport designator
Station Type Date Time Source
LOWG METAR 2019/10/15 18:20 UTC NOAA

LOWG 151820Z AUTO 19009KT 9999 NSC 17/11 Q1011 NOSIG


Station Type Date Time Source
LOWG Decoded METAR 2019/10/15 18:20 UTC NOAA

Graz-Thalerhof-Flughafen, Austria (LOWG) 47-00N 015-26E 347M
Oct 15, 2019 - 02:20 PM EDT / 2019.10.15 1820 UTC
Wind: from the S (190 degrees) at 10 MPH (9 KT):0
Visibility: greater than 7 mile(s):0
Temperature: 62 F (17 C)
Dew Point: 51 F (11 C)
Relative Humidity: 67%
Pressure (altimeter): 29.85 in. Hg (1011 hPa)
ob: LOWG 151820Z AUTO 19009KT 9999 NSC 17/11 Q1011 NOSIG
cycle: 18

Station Type Date Time Source
LOWG TAF 2019/10/15 18:21 UTC NOAA

TAF TAF LOWG 151715Z 1518/1618 18006KT 9999 FEW050 SCT300 TX16/1613Z TN11/1601Z
BECMG 1521/1523 VRB02KT 3000 BCFG
TEMPO 1523/1605 0300 PROB40
TEMPO 1604/1607 35007KT 8000 SHRA SCT040 BKN090
BECMG 1606/1608 VRB04KT 9999 BKN040

Example: see airport list